WXM80 ListenWXM80 Stop

You find our weather info also at:

UK Metoffice

WeatherCloud

Weather Underground

Northeastern Weather Network

AWEKAS

Citizen Weather Observer Program (CWOP)

HAMweather, WeatherForYou, PWS Weather


Weather Underground History page Text

Daily Summary for March 24, 2017 Units:  English    Metric   Both
« Previous Day
Next Day »
Daily Weekly Monthly Yearly Custom
  High: Low: Average:
Temperature: 51.7 °F 31.9 °F 42.2 °F
Dew Point: 39.3 °F 25.2 °F 32 °F
Humidity: 79 % 49 % 68 %
Wind Speed: 11.7 mph 0.0 mph 3.6 mph
Wind Gust: 19.6 mph - -
Wind:- - SSW
Pressure: 30.51 in 30.08 in -
Precipitation: 0.00 in    
Historical Graphs
 
 
Tabular Data for March 24, 2017
Time Temperature Dew Point Pressure Wind Wind Speed Wind Gust Humidity Rainfall Rate (Hourly)
00:00 33.7 °F 25.3 °F 30.50 in SSW 2.1 mph 3.5 mph 71 % 0.00 in
00:05 33.7 °F 25.6 °F 30.50 in SSW 1.6 mph 3.5 mph 72 % 0.00 in
00:10 33.7 °F 25.6 °F 30.50 in SSW 2.6 mph 6.0 mph 72 % 0.00 in
00:15 33.7 °F 26.0 °F 30.50 in SW 4.2 mph 6.9 mph 73 % 0.00 in
00:20 33.7 °F 26.0 °F 30.50 in SSW 2.4 mph 5.8 mph 73 % 0.00 in
00:25 33.8 °F 26.1 °F 30.50 in WSW 2.2 mph 3.5 mph 73 % 0.00 in
00:30 33.8 °F 26.1 °F 30.50 in SW 2.4 mph 4.0 mph 73 % 0.00 in
00:35 33.8 °F 26.1 °F 30.51 in SW 2.7 mph 4.6 mph 73 % 0.00 in
00:40 33.9 °F 26.2 °F 30.51 in SW 2.1 mph 4.6 mph 73 % 0.00 in
00:45 33.9 °F 26.2 °F 30.51 in WSW 0.6 mph 3.5 mph 73 % 0.00 in
00:50 33.9 °F 26.2 °F 30.51 in WSW 0.9 mph 2.3 mph 73 % 0.00 in
00:55 33.9 °F 26.2 °F 30.51 in WSW 0.6 mph 2.3 mph 73 % 0.00 in
01:00 33.8 °F 25.7 °F 30.51 in WSW 0.6 mph 1.2 mph 72 % 0.00 in
01:05 33.8 °F 26.1 °F 30.51 in WSW 1.6 mph 3.5 mph 73 % 0.00 in
01:10 33.7 °F 25.6 °F 30.51 in Calm     72 % 0.00 in
01:15 33.6 °F 25.5 °F 30.50 in Calm     72 % 0.00 in
01:20 33.5 °F 25.4 °F 30.50 in WSW 0.6 mph 1.2 mph 72 % 0.00 in
01:25 33.3 °F 25.6 °F 30.50 in WSW 0.2 mph 2.3 mph 73 % 0.00 in
01:30 33.2 °F 25.5 °F 30.49 in WSW 0.5 mph 2.3 mph 73 % 0.00 in
01:35 33.1 °F 25.4 °F 30.49 in WSW 1.5 mph 3.5 mph 73 % 0.00 in
01:40 32.9 °F 25.2 °F 30.49 in WSW 1.3 mph 3.5 mph 73 % 0.00 in
01:45 32.8 °F 25.4 °F 30.49 in SW 1.5 mph 3.5 mph 74 % 0.00 in
01:50 32.7 °F 25.3 °F 30.49 in SW 0.4 mph 2.0 mph 74 % 0.00 in
01:55 32.7 °F 25.6 °F 30.49 in SW 0.5 mph 1.2 mph 75 % 0.00 in
02:00 32.7 °F 25.6 °F 30.49 in SW 0.7 mph 4.0 mph 75 % 0.00 in
02:05 32.6 °F 25.6 °F 30.49 in Calm     75 % 0.00 in
02:10 32.6 °F 25.6 °F 30.49 in Calm     75 % 0.00 in
02:15 32.5 °F 25.5 °F 30.48 in Calm   1.0 mph 75 % 0.00 in
02:20 32.4 °F 25.7 °F 30.49 in SW 0.8 mph 2.0 mph 76 % 0.00 in
02:25 32.3 °F 25.6 °F 30.49 in SW 0.8 mph 2.3 mph 76 % 0.00 in
02:31 32.2 °F 25.5 °F 30.50 in Calm     76 % 0.00 in
02:36 32.1 °F 25.4 °F 30.50 in SW 0.4 mph 2.0 mph 76 % 0.00 in
02:41 32.1 °F 25.4 °F 30.50 in SW 1.6 mph 3.5 mph 76 % 0.00 in
02:46 32.0 °F 25.6 °F 30.49 in Calm     77 % 0.00 in
02:51 32.0 °F 25.6 °F 30.50 in SSW 0.9 mph 3.5 mph 77 % 0.00 in
02:56 31.9 °F 25.5 °F 30.50 in SSW 0.4 mph 2.0 mph 77 % 0.00 in
03:01 31.9 °F 25.8 °F 30.49 in SSW 0.4 mph 2.3 mph 78 % 0.00 in
03:06 31.9 °F 25.8 °F 30.49 in SSW 0.2 mph 2.0 mph 78 % 0.00 in
03:11 31.9 °F 26.1 °F 30.49 in SSW 0.9 mph 1.2 mph 79 % 0.00 in
03:16 32.1 °F 26.3 °F 30.48 in SSW 1.2 mph 2.3 mph 79 % 0.00 in
03:21 32.2 °F 26.4 °F 30.48 in SSW 1.1 mph 2.3 mph 79 % 0.00 in
03:26 32.3 °F 26.5 °F 30.48 in SSW 0.7 mph 2.3 mph 79 % 0.00 in
03:31 32.4 °F 26.6 °F 30.48 in SSW 1.1 mph 2.3 mph 79 % 0.00 in
03:36 32.4 °F 26.6 °F 30.48 in SSW 0.9 mph 1.2 mph 79 % 0.00 in
03:41 32.5 °F 26.7 °F 30.47 in SSW 0.5 mph 2.3 mph 79 % 0.00 in
03:46 32.6 °F 26.5 °F 30.47 in Calm   3.5 mph 78 % 0.00 in
03:51 32.7 °F 26.9 °F 30.46 in SSW 2.1 mph 3.5 mph 79 % 0.00 in
03:53 32.7 °F 26.9 °F 30.46 in SSW 1.8 mph 2.3 mph 79 % 0.00 in
03:58 32.7 °F 26.9 °F 30.46 in Calm   1.2 mph 79 % 0.00 in
04:03 32.6 °F 26.5 °F 30.46 in SSW 0.2 mph 2.3 mph 78 % 0.00 in
04:08 32.6 °F 26.5 °F 30.46 in SSW 1.3 mph 2.3 mph 78 % 0.00 in
04:13 32.6 °F 26.5 °F 30.46 in SSW 0.9 mph 2.3 mph 78 % 0.00 in
04:18 32.5 °F 26.4 °F 30.45 in SSW 2.1 mph 3.5 mph 78 % 0.00 in
04:23 32.5 °F 26.7 °F 30.45 in SSW 1.3 mph 2.3 mph 79 % 0.00 in
04:28 32.4 °F 26.6 °F 30.45 in SSW 0.9 mph 3.5 mph 79 % 0.00 in
04:33 32.4 °F 26.3 °F 30.46 in SSW 0.6 mph 2.3 mph 78 % 0.00 in
04:38 32.3 °F 26.2 °F 30.46 in SSW 0.1 mph 2.0 mph 78 % 0.00 in
04:44 32.3 °F 26.2 °F 30.45 in SSW 1.0 mph 3.5 mph 78 % 0.00 in
04:49 32.3 °F 26.2 °F 30.45 in SSW 2.7 mph 3.5 mph 78 % 0.00 in
04:54 32.2 °F 26.1 °F 30.45 in South 2.3 mph 5.8 mph 78 % 0.00 in
04:59 32.2 °F 26.1 °F 30.45 in SSW 3.2 mph 5.8 mph 78 % 0.00 in
05:04 32.4 °F 26.0 °F 30.45 in South 2.7 mph 5.0 mph 77 % 0.00 in
05:09 32.6 °F 25.9 °F 30.45 in SSW 3.8 mph 7.0 mph 76 % 0.00 in
05:14 32.8 °F 26.1 °F 30.45 in SW 4.1 mph 6.9 mph 76 % 0.00 in
05:19 33.0 °F 25.9 °F 30.46 in South 3.0 mph 4.6 mph 75 % 0.00 in
05:24 33.1 °F 26.0 °F 30.46 in SSW 4.1 mph 8.1 mph 75 % 0.00 in
05:29 33.4 °F 26.0 °F 30.46 in SSW 5.3 mph 8.1 mph 74 % 0.00 in
05:34 33.6 °F 25.9 °F 30.47 in SW 2.5 mph 5.0 mph 73 % 0.00 in
05:37 33.7 °F 26.0 °F 30.46 in SW 4.5 mph 6.9 mph 73 % 0.00 in
05:42 33.9 °F 25.8 °F 30.46 in WSW 3.3 mph 8.1 mph 72 % 0.00 in
05:47 34.1 °F 26.0 °F 30.47 in SSW 5.2 mph 10.4 mph 72 % 0.00 in
05:52 34.3 °F 25.9 °F 30.47 in SW 4.6 mph 7.0 mph 71 % 0.00 in
05:57 34.4 °F 26.0 °F 30.47 in SSW 5.2 mph 9.2 mph 71 % 0.00 in
06:02 34.6 °F 26.2 °F 30.47 in SW 3.5 mph 4.0 mph 71 % 0.00 in
06:07 34.7 °F 26.3 °F 30.47 in SW 2.9 mph 4.6 mph 71 % 0.00 in
06:12 34.8 °F 26.4 °F 30.46 in SSW 2.8 mph 4.6 mph 71 % 0.00 in
06:17 34.8 °F 26.4 °F 30.46 in South 2.2 mph 5.8 mph 71 % 0.00 in
06:22 34.8 °F 26.4 °F 30.45 in SSW 2.9 mph 4.0 mph 71 % 0.00 in
06:27 34.8 °F 26.4 °F 30.45 in SSW 3.1 mph 4.6 mph 71 % 0.00 in
06:32 34.8 °F 26.4 °F 30.45 in SW 2.8 mph 6.9 mph 71 % 0.00 in
06:37 34.8 °F 26.4 °F 30.44 in SW 3.2 mph 4.6 mph 71 % 0.00 in
06:42 34.8 °F 26.4 °F 30.45 in South 3.4 mph 5.8 mph 71 % 0.00 in
06:47 34.8 °F 26.7 °F 30.45 in SW 3.8 mph 6.9 mph 72 % 0.00 in
06:52 34.9 °F 26.8 °F 30.44 in SSW 2.9 mph 4.6 mph 72 % 0.00 in
06:57 35.0 °F 27.2 °F 30.44 in SSW 1.7 mph 6.9 mph 73 % 0.00 in
07:02 35.1 °F 27.3 °F 30.45 in SW 1.8 mph 3.5 mph 73 % 0.00 in
07:07 35.3 °F 27.5 °F 30.45 in SW 1.8 mph 4.6 mph 73 % 0.00 in
07:12 35.5 °F 27.7 °F 30.46 in SW 1.9 mph 3.5 mph 73 % 0.00 in
07:17 35.6 °F 28.1 °F 30.45 in WSW 1.9 mph 8.1 mph 74 % 0.00 in
07:22 35.8 °F 28.3 °F 30.46 in SW 0.7 mph 2.3 mph 74 % 0.00 in
07:27 36.0 °F 28.5 °F 30.45 in SW 4.3 mph 6.9 mph 74 % 0.00 in
07:32 36.1 °F 28.6 °F 30.45 in SW 2.1 mph 4.0 mph 74 % 0.00 in
07:37 36.2 °F 28.7 °F 30.44 in SSW 4.4 mph 5.8 mph 74 % 0.00 in
07:42 36.4 °F 29.2 °F 30.44 in SSW 4.0 mph 5.0 mph 75 % 0.00 in
07:47 36.6 °F 29.4 °F 30.44 in SSW 1.8 mph 5.0 mph 75 % 0.00 in
07:52 36.8 °F 29.6 °F 30.44 in SSW 3.1 mph 5.8 mph 75 % 0.00 in
07:57 37.0 °F 29.8 °F 30.44 in SSW 3.2 mph 6.9 mph 75 % 0.00 in
08:02 37.3 °F 30.1 °F 30.44 in SW 1.1 mph 4.6 mph 75 % 0.00 in
08:07 37.5 °F 30.3 °F 30.44 in SW 4.3 mph 5.8 mph 75 % 0.00 in
08:12 37.8 °F 30.3 °F 30.43 in SW 4.8 mph 9.2 mph 74 % 0.00 in
08:17 38.0 °F 30.4 °F 30.44 in South 4.8 mph 6.9 mph 74 % 0.00 in
08:22 38.2 °F 30.6 °F 30.44 in SW 1.2 mph 3.5 mph 74 % 0.00 in
08:23 38.2 °F 30.6 °F 30.44 in SW 2.2 mph 3.5 mph 74 % 0.00 in
08:28 38.4 °F 30.8 °F 30.44 in South 3.1 mph 8.0 mph 74 % 0.00 in
08:30 38.5 °F 30.9 °F 30.44 in SSW 4.3 mph 6.9 mph 74 % 0.00 in
08:35 38.6 °F 31.4 °F 30.43 in SW 0.7 mph 6.9 mph 75 % 0.00 in
08:40 38.8 °F 31.9 °F 30.43 in South 4.2 mph 6.9 mph 76 % 0.00 in
08:45 39.1 °F 32.2 °F 30.43 in SSW 5.2 mph 6.9 mph 76 % 0.00 in
08:51 39.3 °F 32.4 °F 30.43 in SSW 4.7 mph 6.9 mph 76 % 0.00 in
08:56 39.7 °F 32.8 °F 30.42 in South 2.9 mph 6.0 mph 76 % 0.00 in
09:01 40.2 °F 32.9 °F 30.42 in WSW 4.0 mph 8.1 mph 75 % 0.00 in
09:06 40.7 °F 32.7 °F 30.42 in SSW 5.1 mph 8.1 mph 73 % 0.00 in
09:11 41.2 °F 32.9 °F 30.42 in SSW 4.3 mph 10.4 mph 72 % 0.00 in
09:16 41.7 °F 33.0 °F 30.41 in SSW 7.9 mph 13.0 mph 71 % 0.00 in
09:21 42.4 °F 32.9 °F 30.42 in South 6.2 mph 11.5 mph 69 % 0.00 in
09:26 43.0 °F 32.4 °F 30.41 in WSW 8.7 mph 15.0 mph 66 % 0.00 in
09:31 43.1 °F 31.7 °F 30.42 in West 5.2 mph 9.2 mph 64 % 0.00 in
09:36 43.2 °F 31.4 °F 30.42 in SW 6.2 mph 12.0 mph 63 % 0.00 in
09:41 43.3 °F 31.1 °F 30.42 in South 8.8 mph 13.8 mph 62 % 0.00 in
09:46 43.3 °F 31.1 °F 30.42 in SSW 8.1 mph 12.7 mph 62 % 0.00 in
09:51 43.3 °F 31.5 °F 30.42 in South 5.8 mph 9.2 mph 63 % 0.00 in
09:56 43.3 °F 30.7 °F 30.41 in South 6.2 mph 11.0 mph 61 % 0.00 in
10:01 44.0 °F 31.4 °F 30.41 in SSW 8.0 mph 12.7 mph 61 % 0.00 in
10:06 44.7 °F 31.7 °F 30.41 in SW 6.7 mph 14.0 mph 60 % 0.00 in
10:11 44.8 °F 30.5 °F 30.41 in SW 6.6 mph 12.7 mph 57 % 0.00 in
10:16 44.7 °F 30.4 °F 30.40 in South 8.4 mph 11.0 mph 57 % 0.00 in
10:21 44.6 °F 30.3 °F 30.39 in South 10.4 mph 19.6 mph 57 % 0.00 in
10:26 44.7 °F 30.0 °F 30.39 in South 8.2 mph 15.0 mph 56 % 0.00 in
10:31 45.0 °F 29.8 °F 30.39 in SSW 9.3 mph 13.0 mph 55 % 0.00 in
10:37 45.2 °F 30.0 °F 30.39 in SSW 5.5 mph 10.4 mph 55 % 0.00 in
10:42 45.5 °F 30.7 °F 30.38 in SW 6.3 mph 11.0 mph 56 % 0.00 in
10:47 45.9 °F 28.8 °F 30.38 in SW 11.7 mph 18.4 mph 51 % 0.00 in
10:52 46.0 °F 28.4 °F 30.38 in SSW 5.1 mph 11.5 mph 50 % 0.00 in
10:57 45.9 °F 27.8 °F 30.38 in SSW 8.5 mph 18.4 mph 49 % 0.00 in
11:02 45.7 °F 28.6 °F 30.38 in SSW 4.3 mph 10.4 mph 51 % 0.00 in
11:07 45.8 °F 29.2 °F 30.38 in South 6.1 mph 12.7 mph 52 % 0.00 in
11:12 45.8 °F 29.6 °F 30.38 in South 4.0 mph 6.9 mph 53 % 0.00 in
11:17 45.7 °F 29.5 °F 30.38 in South 9.6 mph 17.3 mph 53 % 0.00 in
11:22 45.6 °F 29.4 °F 30.38 in SSW 7.6 mph 12.7 mph 53 % 0.00 in
11:27 45.7 °F 30.0 °F 30.37 in SSW 6.5 mph 11.5 mph 54 % 0.00 in
11:32 45.9 °F 30.2 °F 30.37 in South 7.7 mph 12.7 mph 54 % 0.00 in
11:37 45.9 °F 30.2 °F 30.37 in SSW 9.0 mph 16.1 mph 54 % 0.00 in
11:42 45.9 °F 30.2 °F 30.37 in South 9.1 mph 15.0 mph 54 % 0.00 in
11:47 45.9 °F 30.2 °F 30.36 in SSW 8.6 mph 17.3 mph 54 % 0.00 in
11:52 45.8 °F 30.1 °F 30.37 in SW 9.9 mph 15.0 mph 54 % 0.00 in
11:57 45.8 °F 30.5 °F 30.36 in SSW 6.1 mph 8.1 mph 55 % 0.00 in
12:02 45.8 °F 30.1 °F 30.36 in SW 9.6 mph 18.4 mph 54 % 0.00 in
12:07 45.7 °F 30.0 °F 30.36 in SSW 3.8 mph 8.1 mph 54 % 0.00 in
12:12 45.6 °F 30.3 °F 30.34 in SSW 10.2 mph 17.3 mph 55 % 0.00 in
12:17 45.6 °F 30.8 °F 30.34 in SW 6.2 mph 10.4 mph 56 % 0.00 in
12:22 45.8 °F 31.4 °F 30.34 in SSW 5.8 mph 11.5 mph 57 % 0.00 in
12:27 46.1 °F 31.7 °F 30.33 in SW 1.7 mph 6.9 mph 57 % 0.00 in
12:32 46.6 °F 31.7 °F 30.32 in SSW 7.5 mph 10.4 mph 56 % 0.00 in
12:37 46.8 °F 31.5 °F 30.31 in SSW 7.0 mph 12.0 mph 55 % 0.00 in
12:42 47.1 °F 31.7 °F 30.30 in SSW 8.0 mph 15.0 mph 55 % 0.00 in
12:47 47.3 °F 32.4 °F 30.30 in South 5.5 mph 5.8 mph 56 % 0.00 in
12:52 47.5 °F 31.7 °F 30.30 in SSW 6.0 mph 14.0 mph 54 % 0.00 in
12:58 47.3 °F 31.5 °F 30.30 in South 6.3 mph 11.5 mph 54 % 0.00 in
13:03 47.2 °F 31.8 °F 30.30 in SSW 4.8 mph 10.4 mph 55 % 0.00 in
13:08 47.5 °F 32.1 °F 30.30 in SW 4.5 mph 10.0 mph 55 % 0.00 in
13:13 47.7 °F 31.9 °F 30.28 in SSW 9.3 mph 15.0 mph 54 % 0.00 in
13:18 47.7 °F 33.2 °F 30.28 in WSW 3.2 mph 9.2 mph 57 % 0.00 in
13:23 47.8 °F 34.6 °F 30.29 in SSW 3.7 mph 6.9 mph 60 % 0.00 in
13:28 47.8 °F 35.4 °F 30.28 in SSW 1.8 mph 4.6 mph 62 % 0.00 in
13:33 47.9 °F 35.1 °F 30.27 in SSW 6.7 mph 12.7 mph 61 % 0.00 in
13:38 47.5 °F 33.9 °F 30.26 in SW 9.0 mph 13.8 mph 59 % 0.00 in
13:43 47.1 °F 34.3 °F 30.24 in South 4.4 mph 7.0 mph 61 % 0.00 in
13:48 46.8 °F 34.0 °F 30.24 in South 6.5 mph 9.2 mph 61 % 0.00 in
13:49 46.8 °F 34.0 °F 30.24 in SW 5.3 mph 10.4 mph 61 % 0.00 in
13:54 46.8 °F 33.6 °F 30.24 in SW 7.1 mph 15.0 mph 60 % 0.00 in
13:59 46.8 °F 34.0 °F 30.23 in South 4.0 mph 6.9 mph 61 % 0.00 in
14:04 46.7 °F 34.0 °F 30.23 in South 7.2 mph 12.7 mph 61 % 0.00 in
14:09 46.7 °F 34.4 °F 30.22 in SSE 4.5 mph 9.0 mph 62 % 0.00 in
14:14 46.7 °F 34.4 °F 30.22 in SW 2.0 mph 5.8 mph 62 % 0.00 in
14:19 46.7 °F 34.4 °F 30.22 in SW 4.4 mph 8.1 mph 62 % 0.00 in
14:24 46.7 °F 34.0 °F 30.21 in SSW 5.6 mph 11.5 mph 61 % 0.00 in
14:29 46.6 °F 34.3 °F 30.22 in South 2.7 mph 5.8 mph 62 % 0.00 in
14:34 46.6 °F 33.9 °F 30.21 in SW 3.9 mph 6.9 mph 61 % 0.00 in
14:39 46.7 °F 34.0 °F 30.20 in SSW 5.0 mph 8.1 mph 61 % 0.00 in
14:44 46.6 °F 33.9 °F 30.20 in SW 3.8 mph 10.4 mph 61 % 0.00 in
14:49 46.6 °F 34.3 °F 30.19 in South 3.5 mph 5.0 mph 62 % 0.00 in
14:54 46.6 °F 33.9 °F 30.19 in SW 4.3 mph 6.0 mph 61 % 0.00 in
14:59 46.9 °F 34.6 °F 30.19 in SW 4.7 mph 9.2 mph 62 % 0.00 in
15:00 46.9 °F 34.1 °F 30.19 in SSW 3.1 mph 3.5 mph 61 % 0.00 in
15:05 47.0 °F 33.8 °F 30.18 in SW 1.5 mph 6.9 mph 60 % 0.00 in
15:11 47.1 °F 33.9 °F 30.18 in SSE 4.4 mph 9.2 mph 60 % 0.00 in
15:16 47.0 °F 33.8 °F 30.18 in WSW 2.9 mph 7.0 mph 60 % 0.00 in
15:21 47.0 °F 33.4 °F 30.18 in SSW 7.4 mph 13.8 mph 59 % 0.00 in
15:26 47.1 °F 33.9 °F 30.17 in SW 3.6 mph 6.9 mph 60 % 0.00 in
15:31 47.2 °F 34.0 °F 30.17 in SW 5.4 mph 11.5 mph 60 % 0.00 in
15:36 47.4 °F 34.2 °F 30.17 in SSW 2.7 mph 6.9 mph 60 % 0.00 in
15:41 47.6 °F 34.4 °F 30.16 in South 5.5 mph 8.1 mph 60 % 0.00 in
15:46 48.0 °F 34.8 °F 30.16 in SW 5.0 mph 11.5 mph 60 % 0.00 in
15:51 48.4 °F 34.3 °F 30.15 in SSW 5.5 mph 18.4 mph 58 % 0.00 in
15:56 48.7 °F 35.0 °F 30.15 in SSW 6.3 mph 10.4 mph 59 % 0.00 in
16:01 49.0 °F 35.3 °F 30.15 in South 8.1 mph 14.0 mph 59 % 0.00 in
16:06 49.2 °F 35.0 °F 30.15 in SSW 6.3 mph 7.0 mph 58 % 0.00 in
16:11 49.4 °F 35.2 °F 30.14 in SSW 4.9 mph 9.2 mph 58 % 0.00 in
16:16 49.6 °F 35.4 °F 30.14 in South 7.6 mph 12.0 mph 58 % 0.00 in
16:21 49.8 °F 35.6 °F 30.14 in South 7.9 mph 11.5 mph 58 % 0.00 in
16:26 49.9 °F 35.7 °F 30.14 in SSW 4.5 mph 6.0 mph 58 % 0.00 in
16:31 50.1 °F 35.9 °F 30.14 in SW 4.0 mph 6.0 mph 58 % 0.00 in
16:36 50.3 °F 36.1 °F 30.13 in SW 2.2 mph 7.0 mph 58 % 0.00 in
16:41 50.7 °F 36.5 °F 30.13 in SW 7.7 mph 13.0 mph 58 % 0.00 in
16:46 51.0 °F 36.7 °F 30.13 in SSW 5.6 mph 11.0 mph 58 % 0.00 in
16:51 51.3 °F 36.1 °F 30.13 in SW 3.8 mph 8.1 mph 56 % 0.00 in
16:57 51.4 °F 36.7 °F 30.12 in SW 3.2 mph 4.6 mph 57 % 0.00 in
17:02 51.5 °F 36.3 °F 30.12 in SW 3.6 mph 5.8 mph 56 % 0.00 in
17:07 51.6 °F 36.4 °F 30.12 in SW 6.8 mph 9.2 mph 56 % 0.00 in
17:12 51.6 °F 36.4 °F 30.12 in South 3.0 mph 9.2 mph 56 % 0.00 in
17:17 51.7 °F 37.4 °F 30.12 in WSW 2.5 mph 4.0 mph 58 % 0.00 in
17:22 51.7 °F 36.5 °F 30.12 in SW 7.6 mph 11.5 mph 56 % 0.00 in
17:27 51.7 °F 36.9 °F 30.12 in SW 2.5 mph 6.0 mph 57 % 0.00 in
17:32 51.6 °F 36.9 °F 30.12 in WSW 4.2 mph 9.0 mph 57 % 0.00 in
17:37 51.6 °F 36.9 °F 30.12 in South 2.8 mph 4.6 mph 57 % 0.00 in
17:42 51.4 °F 37.1 °F 30.12 in South 1.1 mph 3.5 mph 58 % 0.00 in
17:47 51.3 °F 37.0 °F 30.12 in SSW 1.3 mph 4.0 mph 58 % 0.00 in
17:52 51.2 °F 36.9 °F 30.11 in SSW 2.8 mph 5.8 mph 58 % 0.00 in
17:57 51.0 °F 36.7 °F 30.11 in South 1.7 mph 5.8 mph 58 % 0.00 in
18:02 50.8 °F 37.0 °F 30.11 in SSW 3.1 mph 6.0 mph 59 % 0.00 in
18:07 50.6 °F 37.2 °F 30.11 in SSW 1.2 mph 2.3 mph 60 % 0.00 in
18:12 50.5 °F 37.1 °F 30.11 in South 2.3 mph 6.0 mph 60 % 0.00 in
18:17 50.4 °F 37.0 °F 30.11 in South 2.9 mph 4.6 mph 60 % 0.00 in
18:22 50.2 °F 37.3 °F 30.10 in SSE 1.8 mph 4.6 mph 61 % 0.00 in
18:24 50.1 °F 37.2 °F 30.10 in SE 2.9 mph 8.0 mph 61 % 0.00 in
18:29 49.9 °F 37.4 °F 30.09 in SSW 4.2 mph 6.9 mph 62 % 0.00 in
18:34 49.7 °F 37.2 °F 30.09 in SSW 4.1 mph 8.1 mph 62 % 0.00 in
18:39 49.5 °F 37.4 °F 30.09 in South 3.0 mph 4.6 mph 63 % 0.00 in
18:45 49.4 °F 37.3 °F 30.08 in South 1.9 mph 6.0 mph 63 % 0.00 in
18:50 49.2 °F 37.5 °F 30.08 in South 1.9 mph 4.6 mph 64 % 0.00 in
18:55 49.0 °F 37.3 °F 30.08 in South 2.1 mph 8.1 mph 64 % 0.00 in
18:59 48.8 °F 37.6 °F 30.08 in SSW 2.1 mph 4.0 mph 65 % 0.00 in
19:04 48.6 °F 37.4 °F 30.08 in SSW 4.7 mph 9.2 mph 65 % 0.00 in
19:09 48.2 °F 37.4 °F 30.08 in SSE 3.3 mph 6.9 mph 66 % 0.00 in
19:14 48.0 °F 37.6 °F 30.08 in SSW 2.6 mph 5.0 mph 67 % 0.00 in
19:19 47.8 °F 37.4 °F 30.08 in SSE 3.2 mph 6.9 mph 67 % 0.00 in
19:24 47.6 °F 37.6 °F 30.08 in SSW 3.1 mph 4.6 mph 68 % 0.00 in
19:29 47.4 °F 37.7 °F 30.08 in South 2.0 mph 5.8 mph 69 % 0.00 in
19:34 47.2 °F 37.5 °F 30.08 in SSW 1.7 mph 3.5 mph 69 % 0.00 in
19:39 47.0 °F 37.4 °F 30.08 in SSW 0.5 mph 2.3 mph 69 % 0.00 in
19:44 46.9 °F 37.6 °F 30.08 in South 1.5 mph 3.5 mph 70 % 0.00 in
19:49 46.7 °F 37.8 °F 30.09 in SSW 1.0 mph 3.5 mph 71 % 0.00 in
19:54 46.5 °F 37.6 °F 30.09 in SW 3.8 mph 5.8 mph 71 % 0.00 in
19:59 46.4 °F 37.9 °F 30.09 in SSE 3.5 mph 5.8 mph 72 % 0.00 in
20:04 46.3 °F 38.1 °F 30.09 in SW 2.4 mph 4.6 mph 73 % 0.00 in
20:09 46.1 °F 37.9 °F 30.09 in SW 2.5 mph 3.5 mph 73 % 0.00 in
20:14 46.0 °F 37.8 °F 30.09 in South 2.1 mph 3.5 mph 73 % 0.00 in
20:19 45.9 °F 38.1 °F 30.09 in SSW 3.3 mph 5.0 mph 74 % 0.00 in
20:24 45.8 °F 38.0 °F 30.09 in South 2.0 mph 5.8 mph 74 % 0.00 in
20:29 45.6 °F 38.1 °F 30.10 in SW 2.4 mph 4.0 mph 75 % 0.00 in
20:34 45.6 °F 38.1 °F 30.10 in SW 2.5 mph 4.0 mph 75 % 0.00 in
20:39 45.5 °F 38.0 °F 30.10 in WSW 0.9 mph 2.3 mph 75 % 0.00 in
20:44 45.4 °F 37.9 °F 30.11 in WSW 1.8 mph 3.5 mph 75 % 0.00 in
20:49 45.4 °F 38.3 °F 30.11 in SW 0.7 mph 1.2 mph 76 % 0.00 in
20:54 45.4 °F 38.3 °F 30.11 in SW 0.7 mph 3.0 mph 76 % 0.00 in
20:59 45.4 °F 38.3 °F 30.11 in SW 0.2 mph 2.3 mph 76 % 0.00 in
21:04 45.3 °F 38.2 °F 30.11 in SW 1.3 mph 3.5 mph 76 % 0.00 in
21:09 45.3 °F 38.2 °F 30.11 in Calm     76 % 0.00 in
21:14 45.3 °F 38.2 °F 30.12 in SW 0.5 mph 2.0 mph 76 % 0.00 in
21:19 45.3 °F 38.5 °F 30.11 in SW 0.1 mph 1.2 mph 77 % 0.00 in
21:24 45.2 °F 38.1 °F 30.11 in SW 0.2 mph 3.5 mph 76 % 0.00 in
21:29 45.2 °F 38.4 °F 30.11 in SW 0.3 mph 2.3 mph 77 % 0.00 in
21:34 45.2 °F 38.4 °F 30.11 in SW 2.0 mph 4.6 mph 77 % 0.00 in
21:39 45.1 °F 38.6 °F 30.11 in SW 0.5 mph 3.5 mph 78 % 0.00 in
21:44 45.0 °F 38.6 °F 30.12 in SW 3.4 mph 4.6 mph 78 % 0.00 in
21:49 45.0 °F 38.9 °F 30.11 in SSW 1.8 mph 3.5 mph 79 % 0.00 in
21:54 44.9 °F 38.8 °F 30.11 in SW 2.1 mph 3.5 mph 79 % 0.00 in
21:59 44.9 °F 38.8 °F 30.11 in WSW 2.2 mph 6.0 mph 79 % 0.00 in
22:04 45.0 °F 38.9 °F 30.11 in SW 1.6 mph 3.5 mph 79 % 0.00 in
22:09 45.1 °F 39.0 °F 30.11 in SSW 1.7 mph 3.5 mph 79 % 0.00 in
22:15 45.1 °F 39.0 °F 30.10 in SSW 2.0 mph 4.0 mph 79 % 0.00 in
22:20 45.3 °F 39.2 °F 30.10 in SSW 3.2 mph 4.6 mph 79 % 0.00 in
22:25 45.4 °F 38.9 °F 30.11 in SW 2.5 mph 9.2 mph 78 % 0.00 in
22:30 45.8 °F 39.0 °F 30.11 in SSW 4.6 mph 8.1 mph 77 % 0.00 in
22:35 46.2 °F 39.1 °F 30.10 in SSW 4.2 mph 8.1 mph 76 % 0.00 in
22:40 46.5 °F 39.3 °F 30.10 in SSW 4.9 mph 6.9 mph 76 % 0.00 in
22:45 46.9 °F 39.0 °F 30.09 in SSW 4.5 mph 6.9 mph 74 % 0.00 in
22:50 47.2 °F 39.3 °F 30.09 in SW 1.8 mph 5.0 mph 74 % 0.00 in
22:55 47.4 °F 39.2 °F 30.09 in SW 5.1 mph 6.9 mph 73 % 0.00 in
22:57 47.5 °F 38.9 °F 30.09 in SW 5.0 mph 8.1 mph 72 % 0.00 in
23:02 47.7 °F 39.1 °F 30.09 in SSW 4.1 mph 6.9 mph 72 % 0.00 in
23:07 48.0 °F 39.0 °F 30.08 in SW 6.7 mph 11.5 mph 71 % 0.00 in
23:12 48.1 °F 38.8 °F 30.09 in SSW 4.6 mph 6.9 mph 70 % 0.00 in
23:17 48.4 °F 39.1 °F 30.08 in West 5.7 mph 8.1 mph 70 % 0.00 in
23:22 48.6 °F 38.9 °F 30.08 in SSW 3.9 mph 8.0 mph 69 % 0.00 in
23:27 48.8 °F 38.7 °F 30.08 in SW 3.7 mph 5.8 mph 68 % 0.00 in
23:32 49.0 °F 38.9 °F 30.08 in SSW 4.1 mph 6.9 mph 68 % 0.00 in
23:37 49.0 °F 38.9 °F 30.08 in SW 5.3 mph 9.2 mph 68 % 0.00 in
23:42 49.1 °F 39.0 °F 30.08 in WSW 5.3 mph 10.4 mph 68 % 0.00 in
23:47 49.1 °F 39.0 °F 30.08 in SW 5.6 mph 6.0 mph 68 % 0.00 in
23:52 49.2 °F 38.7 °F 30.08 in SW 5.9 mph 7.0 mph 67 % 0.00 in
23:57 49.2 °F 38.7 °F 30.08 in SW 6.6 mph 11.5 mph 67 % 0.00 in
Crab Meadow Weather
Compliments of Weather Underground - 3 mb

Script developed by  Jim McMurry - jmcmurry@mwt.net Adapted for the template by  Wim van der Kuil - Leuven-Template.eu

Weather Terms: Advisory - An advisory is issued when a hazardous weather or hydrologic event is occurring, imminent or likely. Advisories are for less serious conditions than warnings, that cause significant inconvenience and if caution is not exercised, could lead to situations that may threaten life or property.